Time;durP1;ratioP1;P1;durP2;ratioP2;P2;SDS_P1;SDS_P2;PMS_P1;PMS_P2;Temp;Humidity;BMP_temperature;BMP_pressure;BME280_temperature;BME280_humidity;BME280_pressure;Samples;Min_cycle;Max_cycle;Signal;HPM_P1;HPM_P2
2022/01/01 00:00:49;;;;;;;25.25;14.48;;;;;;;;;;5024316;28;20045;-85
2022/01/01 00:03:15;;;;;;;26.35;14.60;;;;;;;;;;5029979;28;20037;-84
2022/01/01 00:05:41;;;;;;;27.58;14.25;;;;;;;;;;5020738;28;20397;-84
2022/01/01 00:08:08;;;;;;;23.33;13.10;;;;;;;;;;5032928;28;20055;-86
2022/01/01 00:10:34;;;;;;;26.02;13.73;;;;;;;;;;5036358;28;20025;-86
2022/01/01 00:13:00;;;;;;;25.08;12.70;;;;;;;;;;5038384;28;20029;-85
2022/01/01 00:15:26;;;;;;;23.50;12.75;;;;;;;;;;5023742;28;20527;-84
2022/01/01 00:17:52;;;;;;;24.98;12.93;;;;;;;;;;5018161;28;20076;-85
2022/01/01 00:20:18;;;;;;;27.95;13.65;;;;;;;;;;5033170;28;20507;-85
2022/01/01 00:22:44;;;;;;;20.77;11.55;;;;;;;;;;5018832;28;20065;-85
2022/01/01 00:25:12;;;;;;;20.63;11.70;;;;;;;;;;5038422;28;20527;-84
2022/01/01 00:27:38;;;;;;;20.15;11.23;;;;;;;;;;5026450;28;20430;-85
2022/01/01 00:30:07;;;;;;;19.50;11.05;;;;;;;;;;5025067;28;20037;-85
2022/01/01 00:32:37;;;;;;;17.52;9.90;;;;;;;;;;5043333;28;20032;-84
2022/01/01 00:35:03;;;;;;;19.65;10.30;;;;;;;;;;5035597;28;20029;-84
2022/01/01 00:37:29;;;;;;;17.95;10.82;;;;;;;;;;5029936;28;20030;-85
2022/01/01 00:39:55;;;;;;;17.77;9.38;;;;;;;;;;5017675;28;20112;-85
2022/01/01 00:42:21;;;;;;;20.20;10.25;;;;;;;;;;5034436;28;20043;-84
2022/01/01 00:44:47;;;;;;;18.85;9.85;;;;;;;;;;5034767;28;20021;-84
2022/01/01 00:47:13;;;;;;;23.92;10.45;;;;;;;;;;5018312;28;20053;-84
2022/01/01 00:49:39;;;;;;;22.27;10.57;;;;;;;;;;5021490;28;20029;-85
2022/01/01 00:52:06;;;;;;;25.25;11.27;;;;;;;;;;5060132;28;20032;-84
2022/01/01 00:54:32;;;;;;;22.80;11.10;;;;;;;;;;5035124;28;20036;-84
2022/01/01 00:56:58;;;;;;;21.58;11.40;;;;;;;;;;5026644;28;20021;-84
2022/01/01 00:59:24;;;;;;;27.75;13.15;;;;;;;;;;5038237;28;20087;-84
2022/01/01 01:01:50;;;;;;;26.52;13.65;;;;;;;;;;5036216;28;20071;-84
2022/01/01 01:04:16;;;;;;;26.33;13.10;;;;;;;;;;5022162;28;20021;-84
2022/01/01 01:06:42;;;;;;;30.10;13.85;;;;;;;;;;5018733;28;20014;-84
2022/01/01 01:09:08;;;;;;;25.63;13.35;;;;;;;;;;5051741;28;20029;-85
2022/01/01 01:11:41;;;;;;;27.00;14.30;;;;;;;;;;5055604;28;20083;-84
2022/01/01 01:14:10;;;;;;;;;;;;;;;;;;5027214;28;20078;-84
2022/01/01 01:16:36;;;;;;;25.98;12.60;;;;;;;;;;5035039;28;19958;-85
2022/01/01 01:19:03;;;;;;;24.20;12.27;;;;;;;;;;5021639;28;20044;-84
2022/01/01 01:21:30;;;;;;;24.05;12.05;;;;;;;;;;5038374;28;20044;-83
2022/01/01 01:23:56;;;;;;;22.33;11.70;;;;;;;;;;5049045;28;20468;-84
2022/01/01 01:26:23;;;;;;;22.70;10.85;;;;;;;;;;5023536;28;20030;-85
2022/01/01 01:28:51;;;;;;;21.55;11.70;;;;;;;;;;5022372;28;20527;-84
2022/01/01 01:31:18;;;;;;;19.50;10.70;;;;;;;;;;5038175;28;20029;-85
2022/01/01 01:33:44;;;;;;;20.52;11.35;;;;;;;;;;5037835;28;20388;-85
2022/01/01 01:36:11;;;;;;;20.52;10.00;;;;;;;;;;5036506;28;20057;-85
2022/01/01 01:38:37;;;;;;;22.67;10.63;;;;;;;;;;5047460;28;20143;-84
2022/01/01 01:41:07;;;;;;;24.20;10.27;;;;;;;;;;5037074;28;20021;-84
2022/01/01 01:43:33;;;;;;;18.17;9.75;;;;;;;;;;5037970;28;20103;-84
2022/01/01 01:46:04;;;;;;;17.25;8.90;;;;;;;;;;5034585;28;20021;-84
2022/01/01 01:48:30;;;;;;;18.95;8.27;;;;;;;;;;5041008;28;20043;-84
2022/01/01 01:50:57;;;;;;;17.65;9.40;;;;;;;;;;5033365;28;20036;-84
2022/01/01 01:53:23;;;;;;;14.35;9.18;;;;;;;;;;5020733;28;20029;-84
2022/01/01 01:55:49;;;;;;;17.08;8.55;;;;;;;;;;5034720;28;20048;-84
2022/01/01 01:58:16;;;;;;;17.55;8.18;;;;;;;;;;5024032;28;20085;-84
2022/01/01 02:03:11;;;;;;;18.25;9.30;;;;;;;;;;5044159;28;20465;-85
2022/01/01 02:05:37;;;;;;;18.58;8.93;;;;;;;;;;5057456;28;20094;-84
2022/01/01 02:08:04;;;;;;;15.75;8.57;;;;;;;;;;5041002;28;20060;-84
2022/01/01 02:10:31;;;;;;;16.52;8.80;;;;;;;;;;5039653;28;20043;-85
2022/01/01 02:12:57;;;;;;;16.77;9.00;;;;;;;;;;5031621;28;20111;-85
2022/01/01 02:15:40;;;;;;;19.88;9.30;;;;;;;;;;5041317;28;20067;-84
2022/01/01 02:18:06;;;;;;;17.95;8.45;;;;;;;;;;5020020;28;20045;-85
2022/01/01 02:20:32;;;;;;;14.15;7.85;;;;;;;;;;5036458;28;20032;-84
2022/01/01 02:23:00;;;;;;;16.98;8.27;;;;;;;;;;5060031;28;20482;-84
2022/01/01 02:25:27;;;;;;;14.60;7.78;;;;;;;;;;5064028;28;20025;-84
2022/01/01 02:27:54;;;;;;;17.42;8.90;;;;;;;;;;5049850;28;20523;-84
2022/01/01 02:30:20;;;;;;;18.20;8.55;;;;;;;;;;5028603;28;20444;-84
2022/01/01 02:32:46;;;;;;;14.73;7.90;;;;;;;;;;5029856;28;20026;-84
2022/01/01 02:35:17;;;;;;;18.58;8.57;;;;;;;;;;5040776;28;20064;-83
2022/01/01 02:37:43;;;;;;;15.38;8.20;;;;;;;;;;5053042;28;20040;-84
2022/01/01 02:40:10;;;;;;;15.70;8.18;;;;;;;;;;5041224;28;20013;-84
2022/01/01 02:42:38;;;;;;;15.05;8.27;;;;;;;;;;5040282;28;20049;-84
2022/01/01 02:45:08;;;;;;;17.75;8.43;;;;;;;;;;5034321;28;20025;-85
2022/01/01 02:47:34;;;;;;;13.15;7.68;;;;;;;;;;5033613;28;20388;-85
2022/01/01 02:50:00;;;;;;;16.67;8.75;;;;;;;;;;5042262;28;20155;-84
2022/01/01 02:52:26;;;;;;;14.93;7.43;;;;;;;;;;5044997;28;20484;-84
2022/01/01 02:54:52;;;;;;;15.27;7.68;;;;;;;;;;5062880;28;20055;-84
2022/01/01 02:57:18;;;;;;;13.25;7.47;;;;;;;;;;5043210;28;20451;-84
2022/01/01 02:59:50;;;;;;;14.38;7.80;;;;;;;;;;5054179;28;20028;-84
2022/01/01 03:02:16;;;;;;;15.60;7.63;;;;;;;;;;5030062;28;20030;-84
2022/01/01 03:04:42;;;;;;;14.38;6.93;;;;;;;;;;5020975;28;20045;-84
2022/01/01 03:07:08;;;;;;;16.67;7.80;;;;;;;;;;5031160;28;20037;-84
2022/01/01 03:09:36;;;;;;;15.35;7.60;;;;;;;;;;5039494;28;20036;-85
2022/01/01 03:12:07;;;;;;;16.85;6.60;;;;;;;;;;5039743;28;20112;-85
2022/01/01 03:14:33;;;;;;;11.43;6.75;;;;;;;;;;5045607;28;20131;-85
2022/01/01 03:16:59;;;;;;;17.13;7.07;;;;;;;;;;5057018;28;20017;-86
2022/01/01 03:19:25;;;;;;;11.68;7.25;;;;;;;;;;5044551;28;20135;-84
2022/01/01 03:21:51;;;;;;;14.05;6.50;;;;;;;;;;5026262;28;20076;-85
2022/01/01 03:24:17;;;;;;;14.60;7.20;;;;;;;;;;5045054;28;20025;-85
2022/01/01 03:26:43;;;;;;;17.77;8.00;;;;;;;;;;5043589;28;20449;-86
2022/01/01 03:29:10;;;;;;;14.30;6.95;;;;;;;;;;5026533;28;20079;-86
2022/01/01 03:31:36;;;;;;;14.50;7.43;;;;;;;;;;5038012;28;20078;-87
2022/01/01 03:34:02;;;;;;;14.60;7.45;;;;;;;;;;5030585;28;20029;-85
2022/01/01 03:36:31;;;;;;;11.75;6.82;;;;;;;;;;5034215;28;20043;-84
2022/01/01 03:38:57;;;;;;;10.18;6.32;;;;;;;;;;5041717;28;20550;-83
2022/01/01 03:41:31;;;;;;;11.07;6.22;;;;;;;;;;5027640;28;20026;-85
2022/01/01 03:44:01;;;;;;;11.70;5.82;;;;;;;;;;5025119;28;20025;-84
2022/01/01 03:46:27;;;;;;;20.92;7.57;;;;;;;;;;5025981;28;20468;-84
2022/01/01 03:48:53;;;;;;;11.82;6.82;;;;;;;;;;5042446;28;20096;-84
2022/01/01 03:51:19;;;;;;;11.80;6.30;;;;;;;;;;5041331;28;20021;-84
2022/01/01 03:53:45;;;;;;;14.13;6.63;;;;;;;;;;5036657;28;20033;-83
2022/01/01 03:56:11;;;;;;;12.98;5.75;;;;;;;;;;5029918;28;20033;-85
2022/01/01 03:58:38;;;;;;;20.70;6.10;;;;;;;;;;5026275;28;20037;-85
2022/01/01 04:01:04;;;;;;;14.13;7.32;;;;;;;;;;5053122;28;20399;-84
2022/01/01 04:03:30;;;;;;;13.55;6.13;;;;;;;;;;5046969;28;20537;-84
2022/01/01 04:05:56;;;;;;;17.00;6.10;;;;;;;;;;5035631;28;20021;-85
2022/01/01 04:08:22;;;;;;;20.05;7.20;;;;;;;;;;5021742;28;20385;-85
2022/01/01 04:10:48;;;;;;;16.27;6.75;;;;;;;;;;5022119;28;20025;-84
2022/01/01 04:13:14;;;;;;;16.42;5.82;;;;;;;;;;5023391;28;20033;-84
2022/01/01 04:15:41;;;;;;;14.23;6.88;;;;;;;;;;5031366;28;20029;-84
2022/01/01 04:18:12;;;;;;;12.35;5.97;;;;;;;;;;5043999;28;20440;-84
2022/01/01 04:20:39;;;;;;;13.68;6.45;;;;;;;;;;5055082;28;20024;-84
2022/01/01 04:23:08;;;;;;;15.55;6.10;;;;;;;;;;5023663;28;20116;-83
2022/01/01 04:25:34;;;;;;;15.90;6.43;;;;;;;;;;5041976;28;20028;-84
2022/01/01 04:28:00;;;;;;;14.88;7.75;;;;;;;;;;5038533;28;20480;-83
2022/01/01 04:30:28;;;;;;;14.10;7.45;;;;;;;;;;5024926;28;20243;-83
2022/01/01 04:32:54;;;;;;;14.50;7.47;;;;;;;;;;5032598;28;20021;-83
2022/01/01 04:35:21;;;;;;;12.32;6.60;;;;;;;;;;5030647;28;20094;-84
2022/01/01 04:37:47;;;;;;;11.70;7.25;;;;;;;;;;5039046;28;20025;-85
2022/01/01 04:40:13;;;;;;;15.02;6.55;;;;;;;;;;5026113;28;20049;-85
2022/01/01 04:42:39;;;;;;;12.15;6.22;;;;;;;;;;5034193;28;20029;-84
2022/01/01 04:45:05;;;;;;;21.25;8.18;;;;;;;;;;5043432;28;20024;-85
2022/01/01 04:47:31;;;;;;;19.08;7.80;;;;;;;;;;5053694;28;20480;-84
2022/01/01 04:49:57;;;;;;;16.38;8.52;;;;;;;;;;5037274;28;20083;-85
2022/01/01 04:52:23;;;;;;;13.93;7.47;;;;;;;;;;5037817;28;20041;-85
2022/01/01 04:54:49;;;;;;;19.88;8.07;;;;;;;;;;5024884;28;20021;-84
2022/01/01 04:57:15;;;;;;;18.25;7.47;;;;;;;;;;5028020;28;20818;-84
2022/01/01 04:59:42;;;;;;;21.00;7.68;;;;;;;;;;5020938;28;20037;-84
2022/01/01 05:02:08;;;;;;;22.80;8.48;;;;;;;;;;5030241;28;20017;-85
2022/01/01 05:04:38;;;;;;;13.68;7.18;;;;;;;;;;5038533;28;20048;-84
2022/01/01 05:07:06;;;;;;;18.80;8.50;;;;;;;;;;5026965;28;20025;-84
2022/01/01 05:09:32;;;;;;;14.25;7.60;;;;;;;;;;5019730;28;20555;-84
2022/01/01 05:11:58;;;;;;;15.85;7.03;;;;;;;;;;5018891;28;20029;-84
2022/01/01 05:14:25;;;;;;;22.40;8.05;;;;;;;;;;5050976;28;20094;-85
2022/01/01 05:16:52;;;;;;;20.88;8.05;;;;;;;;;;5037531;28;20060;-83
2022/01/01 05:19:24;;;;;;;15.73;7.82;;;;;;;;;;5037525;28;20033;-84
2022/01/01 05:21:55;;;;;;;20.00;8.23;;;;;;;;;;5025567;28;20017;-84
2022/01/01 05:24:39;;;;;;;12.93;6.63;;;;;;;;;;5042296;28;20086;-83
2022/01/01 05:27:05;;;;;;;18.73;7.78;;;;;;;;;;5030877;28;20036;-83
2022/01/01 05:29:33;;;;;;;18.23;7.40;;;;;;;;;;5054204;28;20028;-84
2022/01/01 05:32:00;;;;;;;19.58;7.70;;;;;;;;;;5038922;28;20574;-84
2022/01/01 05:34:26;;;;;;;18.65;7.65;;;;;;;;;;5042251;28;20029;-84
2022/01/01 05:36:52;;;;;;;18.75;8.45;;;;;;;;;;5022784;28;20433;-84
2022/01/01 05:39:28;;;;;;;20.17;7.75;;;;;;;;;;5034514;28;20027;-83
2022/01/01 05:41:57;;;;;;;14.88;7.82;;;;;;;;;;5034687;28;20056;-83
2022/01/01 05:44:23;;;;;;;21.27;8.05;;;;;;;;;;5031286;28;20040;-84
2022/01/01 05:46:50;;;;;;;18.15;8.13;;;;;;;;;;5029106;28;20031;-83
2022/01/01 05:49:16;;;;;;;16.00;8.38;;;;;;;;;;5039056;28;20024;-84
2022/01/01 05:51:42;;;;;;;18.10;8.00;;;;;;;;;;5023249;28;20125;-83
2022/01/01 05:54:08;;;;;;;17.48;8.45;;;;;;;;;;5052842;28;20112;-83
2022/01/01 05:56:34;;;;;;;21.23;8.05;;;;;;;;;;5057517;28;20060;-83
2022/01/01 05:59:00;;;;;;;19.15;8.55;;;;;;;;;;5034703;28;20036;-83
2022/01/01 06:01:26;;;;;;;15.00;7.72;;;;;;;;;;5045467;28;20033;-84
2022/01/01 06:03:52;;;;;;;15.43;8.05;;;;;;;;;;5040399;28;20053;-84
2022/01/01 06:06:18;;;;;;;17.83;7.20;;;;;;;;;;5056710;28;20013;-85
2022/01/01 06:08:44;;;;;;;17.58;8.45;;;;;;;;;;5031213;28;20044;-84
2022/01/01 06:11:10;;;;;;;17.45;7.93;;;;;;;;;;5020781;28;20033;-84
2022/01/01 06:13:36;;;;;;;18.50;8.82;;;;;;;;;;5055566;28;20024;-84
2022/01/01 06:16:03;;;;;;;15.27;7.95;;;;;;;;;;5034862;28;20021;-83
2022/01/01 06:18:28;;;;;;;14.35;7.50;;;;;;;;;;5021308;28;20068;-83
2022/01/01 06:20:55;;;;;;;20.80;7.65;;;;;;;;;;5038148;28;20029;-85
2022/01/01 06:23:21;;;;;;;21.05;8.55;;;;;;;;;;5022469;28;20067;-83
2022/01/01 06:25:47;;;;;;;16.35;8.13;;;;;;;;;;5032173;28;20026;-84
2022/01/01 06:28:13;;;;;;;17.35;7.75;;;;;;;;;;5027572;28;20436;-84
2022/01/01 06:30:39;;;;;;;17.10;8.95;;;;;;;;;;5040836;28;20036;-84
2022/01/01 06:33:12;;;;;;;19.88;8.77;;;;;;;;;;5025928;28;20071;-84
2022/01/01 06:35:38;;;;;;;;;;;;;;;;;;5031251;28;20466;-83
2022/01/01 06:38:04;;;;;;;20.02;7.80;;;;;;;;;;5053674;28;19963;-84
2022/01/01 06:40:30;;;;;;;17.30;7.97;;;;;;;;;;5035265;28;20049;-85
2022/01/01 06:42:56;;;;;;;21.80;8.43;;;;;;;;;;5046217;28;20047;-84
2022/01/01 06:45:22;;;;;;;21.25;8.18;;;;;;;;;;5027389;28;20056;-85
2022/01/01 06:47:48;;;;;;;20.92;8.82;;;;;;;;;;5054292;28;20034;-85
2022/01/01 06:50:14;;;;;;;20.20;9.05;;;;;;;;;;5029954;28;20030;-85
2022/01/01 06:52:44;;;;;;;20.42;8.38;;;;;;;;;;5038910;28;20017;-85
2022/01/01 06:55:10;;;;;;;18.27;8.60;;;;;;;;;;5023463;28;20262;-84
2022/01/01 06:57:36;;;;;;;19.25;8.30;;;;;;;;;;5024188;28;20033;-84
2022/01/01 07:00:04;;;;;;;20.73;7.88;;;;;;;;;;5049069;28;20471;-84
2022/01/01 07:02:30;;;;;;;14.57;7.38;;;;;;;;;;5046313;28;20071;-84
2022/01/01 07:04:56;;;;;;;21.52;8.32;;;;;;;;;;5045579;28;20484;-86
2022/01/01 07:07:22;;;;;;;20.65;7.75;;;;;;;;;;5044540;28;20048;-85
2022/01/01 07:09:47;;;;;;;19.88;7.88;;;;;;;;;;5037350;28;20026;-85
2022/01/01 07:12:13;;;;;;;19.30;8.73;;;;;;;;;;5033390;28;20435;-84
2022/01/01 07:14:39;;;;;;;18.25;8.18;;;;;;;;;;5022374;28;20053;-84
2022/01/01 07:17:05;;;;;;;22.33;8.10;;;;;;;;;;5026091;28;20044;-83
2022/01/01 07:19:31;;;;;;;18.50;7.07;;;;;;;;;;5020042;28;20057;-84
2022/01/01 07:22:00;;;;;;;22.50;8.10;;;;;;;;;;5037011;28;20014;-83
2022/01/01 07:24:26;;;;;;;20.42;8.15;;;;;;;;;;5020664;28;20081;-84
2022/01/01 07:26:52;;;;;;;21.90;7.88;;;;;;;;;;5035279;28;20025;-85
2022/01/01 07:29:18;;;;;;;25.75;8.27;;;;;;;;;;5037789;28;20033;-85
2022/01/01 07:31:44;;;;;;;17.00;7.68;;;;;;;;;;5036283;28;20040;-84
2022/01/01 07:34:10;;;;;;;24.65;8.30;;;;;;;;;;5025481;28;20024;-84
2022/01/01 07:36:36;;;;;;;18.95;7.88;;;;;;;;;;5040791;28;20057;-84
2022/01/01 07:39:02;;;;;;;15.93;7.78;;;;;;;;;;5055677;28;20381;-84
2022/01/01 07:41:28;;;;;;;19.17;8.32;;;;;;;;;;5027891;28;20025;-84
2022/01/01 07:43:55;;;;;;;19.73;8.15;;;;;;;;;;5035626;28;20036;-84
2022/01/01 07:46:21;;;;;;;19.20;8.35;;;;;;;;;;5022180;28;20026;-84
2022/01/01 07:48:47;;;;;;;22.08;8.50;;;;;;;;;;5038763;28;20036;-84
2022/01/01 07:51:13;;;;;;;23.92;9.38;;;;;;;;;;5023964;28;20417;-84
2022/01/01 07:53:39;;;;;;;19.98;7.32;;;;;;;;;;5019489;28;20069;-85
2022/01/01 07:56:05;;;;;;;22.05;8.45;;;;;;;;;;5032701;28;20033;-85
2022/01/01 07:58:31;;;;;;;16.35;7.82;;;;;;;;;;5048589;28;20033;-84
2022/01/01 08:00:58;;;;;;;22.00;8.35;;;;;;;;;;5029519;28;20034;-85
2022/01/01 08:03:24;;;;;;;12.23;6.43;;;;;;;;;;5028109;28;20037;-84
2022/01/01 08:05:50;;;;;;;16.75;7.90;;;;;;;;;;5034385;28;20021;-85
2022/01/01 08:08:16;;;;;;;14.25;7.25;;;;;;;;;;5022222;28;20040;-84
2022/01/01 08:10:42;;;;;;;17.80;6.82;;;;;;;;;;5026465;28;20029;-85
2022/01/01 08:13:09;;;;;;;23.33;8.57;;;;;;;;;;5039477;28;20477;-84
2022/01/01 08:15:35;;;;;;;15.35;7.25;;;;;;;;;;5028201;28;20037;-84
2022/01/01 08:18:02;;;;;;;19.52;7.75;;;;;;;;;;5027654;28;20041;-84
2022/01/01 08:20:28;;;;;;;17.92;7.63;;;;;;;;;;5039271;28;21807;-83
2022/01/01 08:22:54;;;;;;;19.42;7.63;;;;;;;;;;5029965;28;20425;-84
2022/01/01 08:25:21;;;;;;;16.35;7.63;;;;;;;;;;5048831;28;20033;-84
2022/01/01 08:27:47;;;;;;;17.45;7.38;;;;;;;;;;5050517;28;20032;-83
2022/01/01 08:30:14;;;;;;;16.98;7.85;;;;;;;;;;5033279;28;20025;-83
2022/01/01 08:32:41;;;;;;;21.35;7.43;;;;;;;;;;5039402;28;20031;-83
2022/01/01 08:35:07;;;;;;;15.32;7.53;;;;;;;;;;5040937;28;20055;-83
2022/01/01 08:37:33;;;;;;;22.85;8.43;;;;;;;;;;5034321;28;20040;-83
2022/01/01 08:39:59;;;;;;;15.88;7.47;;;;;;;;;;5058906;28;20025;-84
2022/01/01 08:42:25;;;;;;;13.63;7.28;;;;;;;;;;5039957;28;20040;-83
2022/01/01 08:44:51;;;;;;;18.33;7.63;;;;;;;;;;5052026;28;20026;-84
2022/01/01 08:47:17;;;;;;;14.55;7.72;;;;;;;;;;5025222;28;20041;-85
2022/01/01 08:49:44;;;;;;;20.77;8.40;;;;;;;;;;5030582;28;20052;-84
2022/01/01 08:52:13;;;;;;;17.13;7.15;;;;;;;;;;5040017;28;20027;-84
2022/01/01 08:54:39;;;;;;;14.52;7.00;;;;;;;;;;5027631;28;20511;-84
2022/01/01 08:57:05;;;;;;;17.00;6.70;;;;;;;;;;5051548;28;20060;-84
2022/01/01 08:59:31;;;;;;;14.88;7.97;;;;;;;;;;5044468;28;20075;-83
2022/01/01 09:01:57;;;;;;;20.15;8.55;;;;;;;;;;5035941;28;20080;-83
2022/01/01 09:04:23;;;;;;;22.15;7.47;;;;;;;;;;5041220;28;20475;-84
2022/01/01 09:06:49;;;;;;;18.58;7.32;;;;;;;;;;5041991;28;20036;-84
2022/01/01 09:09:15;;;;;;;20.58;8.00;;;;;;;;;;5046364;28;20033;-83
2022/01/01 09:11:41;;;;;;;15.30;7.57;;;;;;;;;;5048868;28;20025;-83
2022/01/01 09:14:09;;;;;;;12.65;7.68;;;;;;;;;;5045932;28;20032;-83
2022/01/01 09:16:35;;;;;;;16.85;6.63;;;;;;;;;;5066227;28;20033;-85
2022/01/01 09:19:02;;;;;;;18.10;7.07;;;;;;;;;;5038199;28;20107;-85
2022/01/01 09:21:29;;;;;;;21.65;8.07;;;;;;;;;;5039566;28;20354;-84
2022/01/01 09:23:55;;;;;;;19.15;8.35;;;;;;;;;;5064461;28;20037;-84
2022/01/01 09:26:21;;;;;;;19.05;7.82;;;;;;;;;;5038988;28;20017;-85
2022/01/01 09:28:47;;;;;;;18.30;7.75;;;;;;;;;;5060674;28;20476;-84
2022/01/01 09:31:13;;;;;;;18.90;7.95;;;;;;;;;;5062262;28;20024;-84
2022/01/01 09:33:40;;;;;;;19.10;8.35;;;;;;;;;;5035211;28;20028;-84
2022/01/01 09:36:06;;;;;;;17.30;8.43;;;;;;;;;;5037730;28;20024;-84
2022/01/01 09:38:33;;;;;;;13.77;7.75;;;;;;;;;;5027026;28;20026;-85
2022/01/01 09:41:00;;;;;;;22.67;7.80;;;;;;;;;;5053286;28;20156;-84
2022/01/01 09:43:26;;;;;;;17.52;7.57;;;;;;;;;;5044081;28;20025;-84
2022/01/01 09:45:53;;;;;;;24.00;7.70;;;;;;;;;;5031737;28;20112;-85
2022/01/01 09:48:21;;;;;;;16.35;8.07;;;;;;;;;;5074361;28;20055;-83
2022/01/01 09:50:49;;;;;;;17.88;7.25;;;;;;;;;;5037953;28;20111;-84
2022/01/01 09:53:15;;;;;;;28.48;9.77;;;;;;;;;;5025159;28;20035;-84
2022/01/01 09:55:41;;;;;;;19.40;8.10;;;;;;;;;;5046269;28;20119;-84
2022/01/01 09:58:07;;;;;;;24.63;8.25;;;;;;;;;;5033164;28;20079;-84
2022/01/01 10:00:33;;;;;;;18.13;8.13;;;;;;;;;;5035921;28;20389;-84
2022/01/01 10:02:59;;;;;;;23.95;7.55;;;;;;;;;;5033780;28;20112;-84
2022/01/01 10:05:25;;;;;;;25.48;8.40;;;;;;;;;;5038947;28;20025;-85
2022/01/01 10:07:51;;;;;;;17.05;8.05;;;;;;;;;;5023059;28;20017;-84
2022/01/01 10:10:21;;;;;;;23.13;7.22;;;;;;;;;;5030081;28;20032;-84
2022/01/01 10:12:48;;;;;;;17.83;8.00;;;;;;;;;;5059908;28;20025;-84
2022/01/01 10:15:14;;;;;;;17.48;7.65;;;;;;;;;;5038813;28;20017;-84
2022/01/01 10:17:40;;;;;;;16.92;9.05;;;;;;;;;;5032297;28;20045;-83
2022/01/01 10:20:07;;;;;;;29.70;9.65;;;;;;;;;;5049913;28;20531;-84
2022/01/01 10:22:34;;;;;;;17.75;7.80;;;;;;;;;;5036579;28;20119;-84
2022/01/01 10:27:55;;;;;;;18.05;7.90;;;;;;;;;;5046100;28;20033;-84
2022/01/01 10:30:35;;;;;;;17.85;7.25;;;;;;;;;;5043927;28;20025;-83
2022/01/01 10:33:12;;;;;;;18.88;7.63;;;;;;;;;;5027930;28;20017;-85
2022/01/01 10:35:43;;;;;;;19.85;7.70;;;;;;;;;;5060114;28;20108;-84
2022/01/01 10:38:14;;;;;;;15.35;7.72;;;;;;;;;;5034144;28;20400;-84
2022/01/01 10:40:40;;;;;;;19.27;7.78;;;;;;;;;;5047556;28;20057;-85
2022/01/01 10:43:06;;;;;;;21.75;7.82;;;;;;;;;;5062216;28;20040;-85
2022/01/01 10:45:37;;;;;;;22.48;8.18;;;;;;;;;;5047910;28;20143;-85
2022/01/01 10:48:16;;;;;;;19.05;8.52;;;;;;;;;;5047903;28;20384;-85
2022/01/01 10:50:43;;;;;;;21.65;8.40;;;;;;;;;;5041603;28;20111;-85
2022/01/01 10:53:10;;;;;;;19.88;8.25;;;;;;;;;;5020340;28;20026;-85
2022/01/01 10:55:40;;;;;;;22.08;8.32;;;;;;;;;;5019150;28;20029;-86
2022/01/01 10:58:06;;;;;;;15.27;7.78;;;;;;;;;;5034893;28;20175;-86
2022/01/01 11:00:39;;;;;;;20.13;7.93;;;;;;;;;;5032292;28;20029;-86
2022/01/01 11:03:05;;;;;;;25.85;8.82;;;;;;;;;;5022109;28;20091;-85
2022/01/01 11:05:32;;;;;;;20.60;8.25;;;;;;;;;;5026049;28;20033;-86
2022/01/01 11:07:58;;;;;;;22.02;8.55;;;;;;;;;;5036234;28;20028;-85
2022/01/01 11:10:25;;;;;;;21.83;8.27;;;;;;;;;;5040016;28;20056;-85
2022/01/01 11:12:51;;;;;;;20.08;7.72;;;;;;;;;;5033016;28;20547;-85
2022/01/01 11:15:18;;;;;;;21.77;8.70;;;;;;;;;;5037511;28;20024;-85
2022/01/01 11:17:44;;;;;;;32.20;9.15;;;;;;;;;;5029394;28;20050;-85
2022/01/01 11:20:10;;;;;;;24.58;8.07;;;;;;;;;;5018200;28;20025;-85
2022/01/01 11:22:36;;;;;;;20.48;8.38;;;;;;;;;;5024318;28;20030;-85
2022/01/01 11:25:03;;;;;;;17.70;8.00;;;;;;;;;;5025269;28;20124;-85
2022/01/01 11:27:29;;;;;;;24.42;8.52;;;;;;;;;;5028520;28;20037;-85
2022/01/01 11:29:56;;;;;;;14.52;6.80;;;;;;;;;;5032205;28;20040;-85
2022/01/01 11:32:29;;;;;;;19.88;7.88;;;;;;;;;;5033418;28;20056;-85
2022/01/01 11:34:55;;;;;;;27.10;7.50;;;;;;;;;;5060613;28;20071;-85
2022/01/01 11:37:23;;;;;;;17.70;8.02;;;;;;;;;;5022353;28;20541;-85
2022/01/01 11:39:56;;;;;;;21.00;7.57;;;;;;;;;;5023270;28;20044;-85
2022/01/01 11:42:23;;;;;;;22.00;7.35;;;;;;;;;;5031847;28;20025;-85
2022/01/01 11:44:56;;;;;;;22.08;8.20;;;;;;;;;;5031619;28;20128;-85
2022/01/01 11:47:23;;;;;;;19.80;8.15;;;;;;;;;;5031320;28;20381;-84
2022/01/01 11:49:50;;;;;;;20.63;8.18;;;;;;;;;;5037163;28;20075;-85
2022/01/01 11:52:35;;;;;;;22.20;8.15;;;;;;;;;;5027443;28;20097;-85
2022/01/01 11:55:03;;;;;;;19.15;8.43;;;;;;;;;;5041904;28;20033;-86
2022/01/01 11:57:30;;;;;;;19.77;7.50;;;;;;;;;;5037073;28;20029;-85
2022/01/01 12:00:01;;;;;;;18.45;7.45;;;;;;;;;;5022666;28;20021;-86
2022/01/01 12:02:27;;;;;;;20.48;7.93;;;;;;;;;;5039241;28;20025;-86
2022/01/01 12:04:55;;;;;;;20.67;7.43;;;;;;;;;;5025706;28;20033;-86
2022/01/01 12:07:21;;;;;;;21.38;7.95;;;;;;;;;;5040708;28;20012;-86
2022/01/01 12:09:50;;;;;;;19.15;8.25;;;;;;;;;;5038137;28;20028;-87
2022/01/01 12:12:18;;;;;;;19.00;8.10;;;;;;;;;;5029551;28;20024;-87
2022/01/01 12:14:45;;;;;;;20.38;7.90;;;;;;;;;;5037217;28;20384;-86
2022/01/01 12:17:15;;;;;;;20.52;6.93;;;;;;;;;;5025215;28;20184;-86
2022/01/01 12:19:43;;;;;;;20.52;7.65;;;;;;;;;;5018585;28;20034;-86
2022/01/01 12:22:10;;;;;;;18.23;7.28;;;;;;;;;;5052312;28;20460;-85
2022/01/01 12:24:37;;;;;;;14.43;6.53;;;;;;;;;;5041142;28;20074;-86
2022/01/01 12:27:14;;;;;;;20.73;7.72;;;;;;;;;;5038695;28;20111;-86
2022/01/01 12:29:40;;;;;;;19.25;7.82;;;;;;;;;;5039044;28;20124;-86
2022/01/01 12:32:08;;;;;;;20.00;7.75;;;;;;;;;;5038578;28;20037;-85
2022/01/01 12:34:36;;;;;;;21.60;7.13;;;;;;;;;;5036600;28;20021;-89
2022/01/01 12:37:13;;;;;;;20.48;8.32;;;;;;;;;;5036669;28;20061;-90
2022/01/01 12:39:57;;;;;;;15.32;6.97;;;;;;;;;;5035781;28;20036;-90
2022/01/01 12:42:30;;;;;;;21.80;8.43;;;;;;;;;;5049730;28;20028;-90
2022/01/01 12:44:58;;;;;;;15.73;7.32;;;;;;;;;;5037706;28;20439;-90
2022/01/01 12:47:25;;;;;;;19.13;7.07;;;;;;;;;;5039775;28;20488;-90
2022/01/01 12:49:51;;;;;;;20.55;8.82;;;;;;;;;;5019064;28;20124;-90
2022/01/01 12:52:22;;;;;;;17.08;7.32;;;;;;;;;;5029909;28;20061;-90
2022/01/01 12:54:49;;;;;;;17.98;7.55;;;;;;;;;;5042065;28;20017;-90
2022/01/01 12:57:19;;;;;;;24.17;8.85;;;;;;;;;;5040517;28;20040;-89
2022/01/01 12:59:48;;;;;;;19.10;7.50;;;;;;;;;;5026537;28;20083;-90
2022/01/01 13:02:14;;;;;;;18.90;7.45;;;;;;;;;;5045553;28;20036;-89
2022/01/01 13:04:40;;;;;;;18.13;7.95;;;;;;;;;;5028925;28;20037;-89
2022/01/01 13:07:06;;;;;;;20.17;7.80;;;;;;;;;;5029029;28;20028;-89
2022/01/01 13:09:32;;;;;;;17.75;7.57;;;;;;;;;;5023697;28;20066;-89
2022/01/01 13:12:04;;;;;;;18.08;7.10;;;;;;;;;;5026677;28;20072;-89
2022/01/01 13:14:31;;;;;;;20.25;8.27;;;;;;;;;;5028028;28;20052;-89
2022/01/01 13:16:57;;;;;;;18.80;8.48;;;;;;;;;;5047895;28;20556;-89
2022/01/01 13:19:24;;;;;;;19.30;6.90;;;;;;;;;;5039173;28;20048;-89
2022/01/01 13:21:52;;;;;;;24.90;7.95;;;;;;;;;;5033436;28;20018;-89
2022/01/01 13:24:18;;;;;;;20.92;8.95;;;;;;;;;;5042361;28;20059;-89
2022/01/01 13:26:44;;;;;;;23.77;7.40;;;;;;;;;;5018856;28;20366;-89
2022/01/01 13:29:11;;;;;;;15.60;7.07;;;;;;;;;;5034432;28;20095;-89
2022/01/01 13:31:37;;;;;;;21.23;7.78;;;;;;;;;;5020769;28;20091;-89
2022/01/01 13:34:04;;;;;;;21.60;8.00;;;;;;;;;;5039140;28;20140;-89
2022/01/01 13:36:38;;;;;;;20.08;8.15;;;;;;;;;;5045333;28;20025;-89
2022/01/01 13:39:05;;;;;;;21.45;8.35;;;;;;;;;;5037017;28;20026;-89
2022/01/01 13:41:32;;;;;;;15.25;7.28;;;;;;;;;;5035176;28;20029;-89
2022/01/01 13:43:59;;;;;;;24.20;9.65;;;;;;;;;;5034985;28;20113;-89
2022/01/01 13:46:31;;;;;;;24.38;8.35;;;;;;;;;;5022154;28;20481;-89
2022/01/01 13:48:59;;;;;;;17.77;8.05;;;;;;;;;;5039893;28;20413;-89
2022/01/01 13:51:26;;;;;;;21.00;8.30;;;;;;;;;;5027300;28;20035;-89
2022/01/01 13:54:06;;;;;;;20.65;8.27;;;;;;;;;;5033011;28;20128;-89
2022/01/01 13:56:32;;;;;;;19.25;8.60;;;;;;;;;;5035709;28;20024;-91
2022/01/01 13:58:58;;;;;;;18.10;8.57;;;;;;;;;;5047868;28;20029;-90
2022/01/01 14:01:25;;;;;;;20.95;8.32;;;;;;;;;;5036792;28;20033;-90
2022/01/01 14:03:53;;;;;;;28.00;7.93;;;;;;;;;;5036777;28;20539;-90
2022/01/01 14:06:27;;;;;;;20.15;8.27;;;;;;;;;;5041681;28;20032;-90
2022/01/01 14:08:57;;;;;;;19.65;8.27;;;;;;;;;;5028560;28;20385;-90
2022/01/01 14:11:27;;;;;;;21.40;8.52;;;;;;;;;;5040959;28;20021;-90
2022/01/01 14:14:03;;;;;;;17.88;9.35;;;;;;;;;;5037228;28;20025;-90
2022/01/01 14:16:30;;;;;;;22.15;9.10;;;;;;;;;;5033026;28;20146;-89
2022/01/01 14:18:57;;;;;;;16.60;7.65;;;;;;;;;;5039144;28;20044;-89
2022/01/01 14:21:26;;;;;;;23.10;8.10;;;;;;;;;;5028596;28;20032;-89
2022/01/01 14:23:55;;;;;;;17.17;8.38;;;;;;;;;;5037363;28;20032;-89
2022/01/01 14:26:25;;;;;;;13.48;8.13;;;;;;;;;;5040680;28;20024;-89
2022/01/01 14:28:51;;;;;;;17.08;7.07;;;;;;;;;;5027178;28;20049;-89
2022/01/01 14:31:17;;;;;;;20.95;8.32;;;;;;;;;;5038521;28;20047;-89
2022/01/01 14:33:43;;;;;;;13.27;6.68;;;;;;;;;;5037338;28;20059;-89